메인 페이지
METAR-TAF:

METAR-TAF

공항 :

아가르탈라, 인도

위도: 23-53-24N, 경도: 91-14-32E, 고도: 14m

현재 날씨관측

예보는 4 시간 42분 전, 14:00시(UTC)에 발표되었습니다.
무풍
온도 22°C
습도 88%
기압 1017 hPa
시정: 2500m
박무

METAR: VEAT 201400Z 00000KT 2500 BR NSC 22/20 Q1017 NOSIG

시각: 00:12 (18:42 UTC)

예보

예보는 4 시간 42분 전, 14:00시(UTC)에 발표되었습니다.
예보 대상 시간: 20일 15시부터 20일 24시까지 (UTC)
kt
시정: 2000m
박무
전환 중
20일 22시부터 20일 24시까지 (UTC)
시정: 1500m
박무

TAF: VEAT 201400Z 2015/2024 00000KT 2000 BR NSC BECMG 2022/2024 1500 BR

4,000개 이상의 공항 관측 자료 및 예보 (METAR 및 TAF 보고).

지도상에서 검색 가능한 기상관측소가 노란 점과 빨간 점으로 표시되어 있습니다.

기상관측소 명을 보려면 표시 위로 마우스를 이동하세요.

날씨 관측과 예보를 보려면 클릭하세요.

지도 변경 : 확대하려면 엑스 표시가 있는 녹색 버튼, 축소하려면 빼기 표시가 있는 녹색 버튼, 다음 페이지의 지도를 보려면 녹색 화살표를 클릭하세요.


METAR-TAF: